Архив погоды в Котельниче

Метеограмма Котельнич
Среда, 22 Мая
Время местн. Темп Ветер Видим Явления Облачность нижн/средн/верх Атм. давл. Влжн Точка росы ВНГО R Сост. почвы Tg s
Напр Скр Прв ур.ст ур.м изм
21:00 +13.6° Ю-З 2 3 20 км - переменная облачность 746 757 -0.5 56% +5° 1 км - - - -
18:00 +18° Ю-З 2 4 20 км - облачно с прояснениями 746 757 -0.8 34% +1.9° 1 км - - - -
15:00 +18.9° Ю,Ю-З 3 6 20 км - переменная облачность 747 758 -1.3 27% -0.5° - - - - -
12:00 +17.6° З,Ю-З 2 4 20 км - переменная облачность 748 759 -1 29% -0.7° - - - - -
09:00 +14° Ю 1 2 20 км - преимущественно облачно 749 761 -0.7 37% -0.5° 600 м - - - -
06:00 +7.2° Ю 1 3 20 км - облачно 750 761 -0.6 64% +0.9° 600 м - Сухая (без трещин) - -
03:00 +1.3° штиль 0 0 20 км - преимущественно облачно 750 762 -0.5 81% -1.6° 600 м - - - -
00:00 +1.5° С 1 1 10 км - ясно 751 763 0 74% -2.6° более 2.5 км - - - -
Вторник, 21 Мая
Время местн. Темп Ветер Видим Явления Облачность нижн/средн/верх Атм. давл. Влжн Точка росы ВНГО R Сост. почвы Tg s
Напр Скр Прв ур.ст ур.м изм
21:00 +6.4° С 1 1 20 км - переменная облачность 751 763 0 51% -3.1° более 2.5 км - - - -
18:00 +15.4° С 4 6 20 км - переменная облачность 751 762 -0.8 20% -7.1° более 2.5 км - - - -
15:00 +15.3° С 5 8 20 км - переменная облачность 752 763 -0.8 21% -6.7° 1 км - - - -
12:00 +13.7° С 5 8 20 км - переменная облачность 752 764 -1.4 25% -6° 1 км - - - -
09:00 +10.9° С 6 10 20 км - переменная облачность 754 765 +0.1 33% -4.7° 1 км - - - -
06:00 +5° С,С-З 2 3 20 км - ясно 754 765 +0.5 60% -2.2° более 2.5 км - Влажная (без луж) - -
03:00 -1.4° С-З 1 2 20 км - ясно 753 765 +0.6 82% -4° более 2.5 км - - - -
00:00 +0.7° С-З 1 2 10 км - ясно 753 765 +0.6 75% -3.2° более 2.5 км - - - -
Понедельник, 20 Мая
Время местн. Темп Ветер Видим Явления Облачность нижн/средн/верх Атм. давл. Влжн Точка росы ВНГО R Сост. почвы Tg s
Напр Скр Прв ур.ст ур.м изм
21:00 +6.5° С 2 2 20 км - переменная облачность 752 764 +0.3 51% -2.9° 600 м - - - -
18:00 +11.7° С,С-З 6 12 20 км - преимущественно облачно 752 763 +0.1 31% -5° 600 м 0 - - -
15:00 +11.8° С 5 7 20 км - облачно с прояснениями 752 763 0 35% -3.3° 600 м - - - -
12:00 +11.3° С 6 9 20 км - преимущественно облачно 752 763 +0.3 38% -2.5° 600 м - - - -
09:00 +9.2° С-З 4 6 20 км - переменная облачность 751 763 -0.2 51% -0.5° 1 км - - - -
06:00 +3.6° С-З 4 5 20 км - преимущественно облачно 752 763 +0.8 73% -0.8° 600 м - Влажная (без луж) - -
03:00 +4.3° С-З 4 5 20 км - преимущественно облачно 751 763 +0.2 71% -0.5° 600 м - - - -
00:00 +4.6° С 4 5 10 км - преимущественно облачно 751 762 0 65% -1.4° 600 м - - - -
Воскресенье, 19 Мая
Время местн. Темп Ветер Видим Явления Облачность нижн/средн/верх Атм. давл. Влжн Точка росы ВНГО R Сост. почвы Tg s
Напр Скр Прв ур.ст ур.м изм
21:00 +5.3° С 3 4 10 км - облачно 751 762 +0.6 60% -1.8° 600 м - - - -
18:00 +6° С 3 5 20 км - облачно 750 762 +0.7 57% -1.9° 600 м - - - -